Time;durP1;ratioP1;P1;durP2;ratioP2;P2;SDS_P1;SDS_P2;PMS_P1;PMS_P2;Temp;Humidity;BMP_temperature;BMP_pressure;BME280_temperature;BME280_humidity;BME280_pressure;Samples;Min_cycle;Max_cycle;Signal;HPM_P1;HPM_P2
2021/03/30 00:01:51;;;;;;;5.53;2.33;;;;;;;;;;5032239;28;20847;-70
2021/03/30 00:04:17;;;;;;;3.63;3.20;;;;;;;;;;5030651;28;20777;-70
2021/03/30 00:06:43;;;;;;;3.27;1.77;;;;;;;;;;5032432;28;20412;-70
2021/03/30 00:09:10;;;;;;;3.23;2.33;;;;;;;;;;5032078;28;20422;-70
2021/03/30 00:11:37;;;;;;;3.97;2.53;;;;;;;;;;5031936;28;20893;-70
2021/03/30 00:14:03;;;;;;;4.00;2.30;;;;;;;;;;5033992;28;20401;-69
2021/03/30 00:16:31;;;;;;;2.80;2.37;;;;;;;;;;5037242;28;21154;-68
2021/03/30 00:18:57;;;;;;;3.87;1.83;;;;;;;;;;5033397;28;20475;-69
2021/03/30 00:21:23;;;;;;;3.33;1.80;;;;;;;;;;5033398;28;20884;-69
2021/03/30 00:23:49;;;;;;;9.43;2.20;;;;;;;;;;5037855;28;20423;-68
2021/03/30 00:26:16;;;;;;;5.33;1.97;;;;;;;;;;5031986;28;20965;-70
2021/03/30 00:28:42;;;;;;;9.13;1.80;;;;;;;;;;5029218;28;20392;-70
2021/03/30 00:31:07;;;;;;;1.50;1.00;;;;;;;;;;5032453;28;20446;-70
2021/03/30 00:33:33;;;;;;;3.23;1.90;;;;;;;;;;5031939;28;20392;-69
2021/03/30 00:36:00;;;;;;;3.33;1.90;;;;;;;;;;5032393;28;20480;-69
2021/03/30 00:38:26;;;;;;;4.33;2.47;;;;;;;;;;5031904;28;20396;-70
2021/03/30 00:40:52;;;;;;;3.07;2.77;;;;;;;;;;5031573;28;20438;-71
2021/03/30 00:43:19;;;;;;;1.57;1.40;;;;;;;;;;5030679;28;20399;-70
2021/03/30 00:45:44;;;;;;;1.77;1.40;;;;;;;;;;5031373;28;20818;-71
2021/03/30 00:48:18;;;;;;;1.93;1.00;;;;;;;;;;5031889;28;20431;-69
2021/03/30 00:50:44;;;;;;;4.20;1.60;;;;;;;;;;5031276;28;20435;-68
2021/03/30 00:53:10;;;;;;;2.37;2.17;;;;;;;;;;5030990;28;20473;-70
2021/03/30 00:55:36;;;;;;;3.90;1.33;;;;;;;;;;5030234;28;20412;-69
2021/03/30 00:58:03;;;;;;;1.57;1.10;;;;;;;;;;5031320;28;21107;-69
2021/03/30 01:00:29;;;;;;;3.57;1.40;;;;;;;;;;5030757;28;20435;-70
2021/03/30 01:02:57;;;;;;;5.03;3.07;;;;;;;;;;5031530;28;21040;-70
2021/03/30 01:05:23;;;;;;;4.83;1.50;;;;;;;;;;5027312;28;20408;-70
2021/03/30 01:08:00;;;;;;;2.60;1.63;;;;;;;;;;5027612;28;20424;-71
2021/03/30 01:10:56;;;;;;;4.97;1.73;;;;;;;;;;5045402;22;20462;-71
2021/03/30 01:13:22;;;;;;;4.80;1.90;;;;;;;;;;5039604;28;20429;-75
2021/03/30 01:15:53;;;;;;;2.43;1.40;;;;;;;;;;5043009;28;20493;-75
2021/03/30 01:18:28;;;;;;;4.97;2.83;;;;;;;;;;5051717;28;20425;-72
2021/03/30 01:21:03;;;;;;;9.83;3.20;;;;;;;;;;5050749;28;20425;-73
2021/03/30 01:23:48;;;;;;;3.90;1.40;;;;;;;;;;5042357;28;20397;-72
2021/03/30 01:26:26;;;;;;;4.40;1.57;;;;;;;;;;5026591;28;20412;-72
2021/03/30 01:28:52;;;;;;;13.93;3.73;;;;;;;;;;5032139;28;20408;-74
2021/03/30 01:31:20;;;;;;;4.10;1.00;;;;;;;;;;5035050;28;20455;-72
2021/03/30 01:33:47;;;;;;;1.63;1.37;;;;;;;;;;5031668;28;20440;-74
2021/03/30 01:36:14;;;;;;;3.13;2.20;;;;;;;;;;5041554;28;20486;-74
2021/03/30 01:38:42;;;;;;;2.50;2.30;;;;;;;;;;5033830;28;20423;-74
2021/03/30 01:41:09;;;;;;;3.33;1.53;;;;;;;;;;5041559;28;20507;-75
2021/03/30 01:43:35;;;;;;;3.63;1.33;;;;;;;;;;5035389;28;20428;-74
2021/03/30 01:46:01;;;;;;;1.30;1.10;;;;;;;;;;5041633;28;20416;-75
2021/03/30 01:48:28;;;;;;;2.83;1.00;;;;;;;;;;5057738;28;20942;-76
2021/03/30 01:50:54;;;;;;;3.63;1.93;;;;;;;;;;5023767;28;20459;-73
2021/03/30 01:53:21;;;;;;;1.80;1.17;;;;;;;;;;5041554;28;20423;-74
2021/03/30 01:55:49;;;;;;;6.83;1.97;;;;;;;;;;5033230;28;20434;-74
2021/03/30 01:58:20;;;;;;;5.13;2.63;;;;;;;;;;5061444;28;20422;-72
2021/03/30 02:00:46;;;;;;;4.03;1.67;;;;;;;;;;5059769;28;20397;-74
2021/03/30 02:03:17;;;;;;;4.53;1.97;;;;;;;;;;5061410;28;20799;-74
2021/03/30 02:05:44;;;;;;;2.70;1.83;;;;;;;;;;5056386;28;20412;-72
2021/03/30 02:08:12;;;;;;;1.80;1.70;;;;;;;;;;5042532;28;20888;-73
2021/03/30 02:13:08;;;;;;;3.37;2.47;;;;;;;;;;5060473;28;20422;-74
2021/03/30 02:15:34;;;;;;;1.40;1.10;;;;;;;;;;5058971;28;20451;-73
2021/03/30 02:18:07;;;;;;;3.20;2.03;;;;;;;;;;5043766;28;20430;-74
2021/03/30 02:20:37;;;;;;;3.40;2.17;;;;;;;;;;5044472;28;20412;-74
2021/03/30 02:23:03;;;;;;;2.40;1.40;;;;;;;;;;5046351;28;20406;-74
2021/03/30 02:25:33;;;;;;;2.00;1.00;;;;;;;;;;5040633;28;20906;-72
2021/03/30 02:28:03;;;;;;;9.33;1.50;;;;;;;;;;5055815;28;20409;-72
2021/03/30 02:30:29;;;;;;;3.10;2.50;;;;;;;;;;5055292;28;20936;-73
2021/03/30 02:32:55;;;;;;;3.07;1.90;;;;;;;;;;5038326;28;20464;-73
2021/03/30 02:35:23;;;;;;;3.13;1.73;;;;;;;;;;5023297;28;20423;-74
2021/03/30 02:37:49;;;;;;;2.13;1.83;;;;;;;;;;5037098;28;20437;-72
2021/03/30 02:40:16;;;;;;;1.43;0.97;;;;;;;;;;5036431;28;20433;-73
2021/03/30 02:42:42;;;;;;;2.60;1.70;;;;;;;;;;5036441;28;20411;-74
2021/03/30 02:45:10;;;;;;;2.00;1.47;;;;;;;;;;5036824;28;20394;-73
2021/03/30 02:47:38;;;;;;;1.07;0.97;;;;;;;;;;5017348;28;20413;-74
2021/03/30 02:50:04;;;;;;;6.60;2.40;;;;;;;;;;5034216;28;20441;-73
2021/03/30 02:52:33;;;;;;;1.57;0.80;;;;;;;;;;5033988;28;20478;-73
2021/03/30 02:54:59;;;;;;;2.70;2.50;;;;;;;;;;5016473;28;20378;-73
2021/03/30 02:57:25;;;;;;;2.70;1.50;;;;;;;;;;5040032;28;20458;-74
2021/03/30 02:59:53;;;;;;;1.93;1.00;;;;;;;;;;5039351;28;20450;-74
2021/03/30 03:02:19;;;;;;;2.07;1.90;;;;;;;;;;5052029;28;20418;-74
2021/03/30 03:04:48;;;;;;;1.70;1.10;;;;;;;;;;5053685;28;20428;-74
2021/03/30 03:07:16;;;;;;;1.37;1.00;;;;;;;;;;5038059;28;20428;-74
2021/03/30 03:09:43;;;;;;;1.80;1.03;;;;;;;;;;5034109;28;20405;-73
2021/03/30 03:12:09;;;;;;;4.97;3.13;;;;;;;;;;5042096;28;20459;-73
2021/03/30 03:14:36;;;;;;;3.17;1.87;;;;;;;;;;5054235;28;20936;-73
2021/03/30 03:17:02;;;;;;;2.70;2.20;;;;;;;;;;5040144;28;20951;-74
2021/03/30 03:19:28;;;;;;;3.10;2.50;;;;;;;;;;5034757;28;20443;-74
2021/03/30 03:21:54;;;;;;;2.93;1.53;;;;;;;;;;5035649;28;20432;-74
2021/03/30 03:24:20;;;;;;;4.03;1.17;;;;;;;;;;5037953;28;20408;-73
2021/03/30 03:26:47;;;;;;;9.63;2.07;;;;;;;;;;5045286;28;20389;-74
2021/03/30 03:29:14;;;;;;;1.63;1.10;;;;;;;;;;5054191;28;20403;-74
2021/03/30 03:31:40;;;;;;;6.93;1.10;;;;;;;;;;5033711;28;21103;-72
2021/03/30 03:34:06;;;;;;;1.67;1.10;;;;;;;;;;5034098;28;20402;-73
2021/03/30 03:36:39;;;;;;;1.30;1.13;;;;;;;;;;5047408;28;20436;-75
2021/03/30 03:39:06;;;;;;;3.03;2.13;;;;;;;;;;5057593;28;20378;-73
2021/03/30 03:41:32;;;;;;;1.70;1.60;;;;;;;;;;5034165;28;20419;-74
2021/03/30 03:43:58;;;;;;;1.57;1.27;;;;;;;;;;5033020;28;20930;-73
2021/03/30 03:46:24;;;;;;;2.30;1.67;;;;;;;;;;5045105;28;20956;-72
2021/03/30 03:48:50;;;;;;;1.50;1.00;;;;;;;;;;5033784;28;20404;-74
2021/03/30 03:51:17;;;;;;;3.67;1.93;;;;;;;;;;5032869;28;20443;-74
2021/03/30 03:53:44;;;;;;;3.57;1.90;;;;;;;;;;5015757;28;20503;-75
2021/03/30 03:56:10;;;;;;;4.37;1.93;;;;;;;;;;5038838;28;20452;-74
2021/03/30 03:58:38;;;;;;;1.53;0.70;;;;;;;;;;5035342;28;20423;-74
2021/03/30 04:01:06;;;;;;;1.73;1.53;;;;;;;;;;5052447;28;20461;-74
2021/03/30 04:03:39;;;;;;;2.70;2.50;;;;;;;;;;5035089;28;20498;-74
2021/03/30 04:06:14;;;;;;;3.53;1.93;;;;;;;;;;5041350;28;20445;-75
2021/03/30 04:08:51;;;;;;;1.27;0.83;;;;;;;;;;5032056;28;20412;-74
2021/03/30 04:11:17;;;;;;;3.27;2.00;;;;;;;;;;5030040;28;20451;-73
2021/03/30 04:13:44;;;;;;;3.60;1.63;;;;;;;;;;5046613;28;20623;-73
2021/03/30 04:16:11;;;;;;;2.83;1.93;;;;;;;;;;5029444;28;20485;-71
2021/03/30 04:18:39;;;;;;;6.03;1.87;;;;;;;;;;5071196;28;20418;-75
2021/03/30 04:21:05;;;;;;;5.23;2.63;;;;;;;;;;5070085;28;20419;-75
2021/03/30 04:23:33;;;;;;;6.07;1.40;;;;;;;;;;5060730;28;20479;-74
2021/03/30 04:25:59;;;;;;;4.30;3.30;;;;;;;;;;5045302;28;20442;-74
2021/03/30 04:28:25;;;;;;;1.40;1.20;;;;;;;;;;5047124;28;20399;-74
2021/03/30 04:30:51;;;;;;;5.40;1.60;;;;;;;;;;5060836;28;20450;-74
2021/03/30 04:33:17;;;;;;;4.30;1.57;;;;;;;;;;5048747;28;20411;-75
2021/03/30 04:35:43;;;;;;;4.53;3.47;;;;;;;;;;5049268;28;20818;-75
2021/03/30 04:38:09;;;;;;;2.80;1.80;;;;;;;;;;5064325;28;21144;-73
2021/03/30 04:40:37;;;;;;;2.50;1.73;;;;;;;;;;5054273;28;20434;-73
2021/03/30 04:43:03;;;;;;;6.07;2.00;;;;;;;;;;5052903;28;20437;-72
2021/03/30 04:45:30;;;;;;;5.13;2.57;;;;;;;;;;5052289;28;20395;-74
2021/03/30 04:47:56;;;;;;;2.97;1.60;;;;;;;;;;5029944;28;20417;-74
2021/03/30 04:50:22;;;;;;;6.73;1.77;;;;;;;;;;5032000;28;20427;-74
2021/03/30 04:52:48;;;;;;;6.93;2.60;;;;;;;;;;5032637;28;20408;-75
2021/03/30 04:55:15;;;;;;;1.50;1.30;;;;;;;;;;5032779;28;20497;-73
2021/03/30 04:57:40;;;;;;;2.80;2.13;;;;;;;;;;5051959;28;20458;-74
2021/03/30 05:00:07;;;;;;;1.53;1.43;;;;;;;;;;5045863;28;20474;-75
2021/03/30 05:02:33;;;;;;;8.57;2.77;;;;;;;;;;5004629;28;20463;-74
2021/03/30 05:04:59;;;;;;;2.17;1.57;;;;;;;;;;5025133;28;20933;-73
2021/03/30 05:07:25;;;;;;;3.53;1.93;;;;;;;;;;5021572;28;20746;-73
2021/03/30 05:09:51;;;;;;;3.73;2.47;;;;;;;;;;5043275;28;20422;-73
2021/03/30 05:12:17;;;;;;;4.50;1.27;;;;;;;;;;5039687;28;20496;-73
2021/03/30 05:14:43;;;;;;;2.37;1.90;;;;;;;;;;5051303;28;20448;-74
2021/03/30 05:17:09;;;;;;;2.77;2.20;;;;;;;;;;5043053;28;20457;-72
2021/03/30 05:19:35;;;;;;;5.57;2.60;;;;;;;;;;5041211;28;20420;-71
2021/03/30 05:22:01;;;;;;;9.40;2.67;;;;;;;;;;5051036;28;21120;-71
2021/03/30 05:24:27;;;;;;;2.37;1.80;;;;;;;;;;5033089;28;20906;-73
2021/03/30 05:26:53;;;;;;;3.60;2.10;;;;;;;;;;5039804;28;20407;-73
2021/03/30 05:29:19;;;;;;;2.67;2.40;;;;;;;;;;5046734;28;20449;-72
2021/03/30 05:31:45;;;;;;;2.70;1.30;;;;;;;;;;5020024;28;20445;-73
2021/03/30 05:34:11;;;;;;;4.20;3.03;;;;;;;;;;5014031;28;20813;-72
2021/03/30 05:36:37;;;;;;;3.90;1.73;;;;;;;;;;5038072;28;20482;-73
2021/03/30 05:39:03;;;;;;;4.73;3.37;;;;;;;;;;5013571;28;21022;-73
2021/03/30 05:41:29;;;;;;;7.57;3.20;;;;;;;;;;5039078;28;20439;-73
2021/03/30 05:43:56;;;;;;;3.20;3.00;;;;;;;;;;5022617;28;20411;-73
2021/03/30 05:46:22;;;;;;;10.60;4.60;;;;;;;;;;5035983;28;20413;-73
2021/03/30 05:48:48;;;;;;;5.77;4.27;;;;;;;;;;5013772;28;20427;-73
2021/03/30 05:51:18;;;;;;;4.93;3.10;;;;;;;;;;5031163;28;20456;-73
2021/03/30 05:53:45;;;;;;;4.90;3.17;;;;;;;;;;5013372;28;20896;-73
2021/03/30 05:56:11;;;;;;;2.57;2.37;;;;;;;;;;5029590;28;20407;-74
2021/03/30 05:58:39;;;;;;;4.00;2.97;;;;;;;;;;5012694;28;20889;-72
2021/03/30 06:01:05;;;;;;;4.80;3.30;;;;;;;;;;5029978;28;20430;-74
2021/03/30 06:03:33;;;;;;;3.30;1.67;;;;;;;;;;5039697;28;20411;-73
2021/03/30 06:05:59;;;;;;;3.57;1.83;;;;;;;;;;5024939;28;20415;-73
2021/03/30 06:08:26;;;;;;;2.50;2.30;;;;;;;;;;5051394;28;20398;-74
2021/03/30 06:10:59;;;;;;;8.97;4.70;;;;;;;;;;5040135;28;20464;-73
2021/03/30 06:13:45;;;;;;;2.50;2.20;;;;;;;;;;5031325;28;20893;-74
2021/03/30 06:16:27;;;;;;;6.30;2.60;;;;;;;;;;5036677;28;20497;-73
2021/03/30 06:19:09;;;;;;;7.03;1.77;;;;;;;;;;5038189;28;20386;-75
2021/03/30 06:21:36;;;;;;;2.80;2.00;;;;;;;;;;5039638;28;20875;-72
2021/03/30 06:24:02;;;;;;;2.63;2.10;;;;;;;;;;5035013;28;20902;-72
2021/03/30 06:26:28;;;;;;;2.70;2.00;;;;;;;;;;5010731;28;20432;-71
2021/03/30 06:28:55;;;;;;;7.20;3.10;;;;;;;;;;5035338;28;20424;-74
2021/03/30 06:31:23;;;;;;;7.70;2.43;;;;;;;;;;5011733;28;20518;-73
2021/03/30 06:33:55;;;;;;;2.77;2.13;;;;;;;;;;5012335;28;20757;-71
2021/03/30 06:36:23;;;;;;;4.30;2.40;;;;;;;;;;5029455;28;20451;-72
2021/03/30 06:38:55;;;;;;;3.50;2.03;;;;;;;;;;5016656;28;20818;-71
2021/03/30 06:41:30;;;;;;;3.50;2.10;;;;;;;;;;5024173;28;20865;-72
2021/03/30 06:46:50;;;;;;;2.77;1.93;;;;;;;;;;5035435;28;20428;-72
2021/03/30 06:49:17;;;;;;;5.37;3.10;;;;;;;;;;5021013;28;20417;-70
2021/03/30 06:51:43;;;;;;;2.33;2.13;;;;;;;;;;5025057;28;20405;-73
2021/03/30 06:54:09;;;;;;;2.20;1.87;;;;;;;;;;5040837;28;20395;-71
2021/03/30 06:57:04;;;;;;;1.83;1.60;;;;;;;;;;5043322;28;20431;-71
2021/03/30 06:59:42;;;;;;;3.40;3.10;;;;;;;;;;5023028;28;20445;-74
2021/03/30 07:02:08;;;;;;;15.43;2.53;;;;;;;;;;5042232;28;20497;-73
2021/03/30 07:04:34;;;;;;;2.90;2.70;;;;;;;;;;5022025;28;20502;-74
2021/03/30 07:07:00;;;;;;;2.60;2.40;;;;;;;;;;5021018;28;20507;-74
2021/03/30 07:09:28;;;;;;;6.10;1.83;;;;;;;;;;5023851;28;20437;-73
2021/03/30 07:11:54;;;;;;;3.70;2.00;;;;;;;;;;5058272;22;20551;-77
2021/03/30 07:14:20;;;;;;;2.80;2.00;;;;;;;;;;5062133;28;20420;-77
2021/03/30 07:16:49;;;;;;;3.27;2.00;;;;;;;;;;5050028;28;20541;-79
2021/03/30 07:19:17;;;;;;;5.30;2.30;;;;;;;;;;5021273;28;20411;-76
2021/03/30 07:21:49;;;;;;;4.57;3.57;;;;;;;;;;5029215;28;20769;-76
2021/03/30 07:24:16;;;;;;;7.00;3.10;;;;;;;;;;5047636;28;20421;-75
2021/03/30 07:26:45;;;;;;;2.53;2.33;;;;;;;;;;5052448;28;20505;-77
2021/03/30 07:29:20;;;;;;;13.33;3.63;;;;;;;;;;5027744;28;22172;-77
2021/03/30 07:32:05;;;;;;;2.70;1.73;;;;;;;;;;5046592;28;20489;-77
2021/03/30 07:34:37;;;;;;;88.13;80.83;;;;;;;;;;5037307;28;20454;-77
2021/03/30 07:37:09;;;;;;;1.50;1.03;;;;;;;;;;5036923;28;20461;-77
2021/03/30 07:39:46;;;;;;;8.30;3.97;;;;;;;;;;5052174;28;20443;-76
2021/03/30 07:42:12;;;;;;;3.03;1.67;;;;;;;;;;5045374;28;20517;-76
2021/03/30 07:44:39;;;;;;;6.63;2.90;;;;;;;;;;5028672;28;20480;-77
2021/03/30 07:47:08;;;;;;;2.10;1.90;;;;;;;;;;5052155;28;20384;-77
2021/03/30 07:49:39;;;;;;;6.23;2.70;;;;;;;;;;5046274;28;20496;-77
2021/03/30 07:52:29;;;;;;;3.47;1.30;;;;;;;;;;5046534;28;20419;-77
2021/03/30 07:55:15;;;;;;;3.93;2.13;;;;;;;;;;5048105;28;20435;-77
2021/03/30 07:57:56;;;;;;;2.73;2.53;;;;;;;;;;5033984;28;21012;-77
2021/03/30 08:00:31;;;;;;;7.23;2.67;;;;;;;;;;5032478;28;20432;-77
2021/03/30 08:02:58;;;;;;;2.83;1.60;;;;;;;;;;5056860;28;20414;-77
2021/03/30 08:05:27;;;;;;;3.87;2.47;;;;;;;;;;5057746;28;20409;-78
2021/03/30 08:07:54;;;;;;;53.07;35.30;;;;;;;;;;5039796;28;20427;-77
2021/03/30 08:10:26;;;;;;;2.70;2.13;;;;;;;;;;5031860;28;20419;-76
2021/03/30 08:13:21;;;;;;;6.30;3.73;;;;;;;;;;5057391;28;20570;-77
2021/03/30 08:15:48;;;;;;;3.23;2.53;;;;;;;;;;5036535;28;20471;-76
2021/03/30 08:18:17;;;;;;;2.97;2.57;;;;;;;;;;5044420;28;20446;-78
2021/03/30 08:21:00;;;;;;;2.43;2.17;;;;;;;;;;5067986;28;20451;-78
2021/03/30 08:23:26;;;;;;;3.40;3.10;;;;;;;;;;5062318;28;20449;-78
2021/03/30 08:25:57;;;;;;;4.20;2.17;;;;;;;;;;5035159;28;20427;-78
2021/03/30 08:28:42;;;;;;;10.97;1.60;;;;;;;;;;5035451;28;20456;-80
2021/03/30 08:31:09;;;;;;;3.63;2.73;;;;;;;;;;5039991;28;20521;-78
2021/03/30 08:33:36;;;;;;;3.67;2.93;;;;;;;;;;5034196;28;20411;-76
2021/03/30 08:36:15;;;;;;;2.20;2.10;;;;;;;;;;5062482;28;20476;-78
2021/03/30 08:38:42;;;;;;;1.93;1.70;;;;;;;;;;5055580;28;20417;-78
2021/03/30 08:41:09;;;;;;;2.83;2.37;;;;;;;;;;5032064;28;20771;-77
2021/03/30 08:43:34;;;;;;;5.03;2.70;;;;;;;;;;5046862;28;20416;-77
2021/03/30 08:46:12;;;;;;;2.70;2.30;;;;;;;;;;5045170;28;20485;-77
2021/03/30 08:48:48;;;;;;;2.23;1.80;;;;;;;;;;5052922;28;20421;-77
2021/03/30 08:51:15;;;;;;;5.67;3.93;;;;;;;;;;5047886;28;20417;-77
2021/03/30 08:53:41;;;;;;;9.33;3.40;;;;;;;;;;5021079;28;20476;-78
2021/03/30 08:56:10;;;;;;;2.10;1.40;;;;;;;;;;5044316;28;20492;-78
2021/03/30 08:58:48;;;;;;;3.23;2.70;;;;;;;;;;5035569;28;20788;-77
2021/03/30 09:01:14;;;;;;;5.20;2.33;;;;;;;;;;5028113;28;20419;-77
2021/03/30 09:03:41;;;;;;;2.20;2.00;;;;;;;;;;5041685;28;20403;-76
2021/03/30 09:06:26;;;;;;;3.43;2.27;;;;;;;;;;5025959;28;20488;-76
2021/03/30 09:08:52;;;;;;;2.70;1.90;;;;;;;;;;5044910;28;20403;-76
2021/03/30 09:11:19;;;;;;;2.87;2.23;;;;;;;;;;5045482;28;20486;-76
2021/03/30 09:13:59;;;;;;;4.40;1.80;;;;;;;;;;5027438;28;20472;-76
2021/03/30 09:16:27;;;;;;;2.00;1.80;;;;;;;;;;5042578;28;20799;-76
2021/03/30 09:19:12;;;;;;;2.00;1.30;;;;;;;;;;5033548;28;20418;-77
2021/03/30 09:21:38;;;;;;;2.40;2.20;;;;;;;;;;5040213;28;20515;-76
2021/03/30 09:24:09;;;;;;;5.93;2.30;;;;;;;;;;5025419;28;20815;-76
2021/03/30 09:26:40;;;;;;;3.60;2.27;;;;;;;;;;5037393;28;20857;-75
2021/03/30 09:29:06;;;;;;;1.50;1.17;;;;;;;;;;5058665;28;20431;-76
2021/03/30 09:31:32;;;;;;;3.63;2.40;;;;;;;;;;5058652;28;20422;-76
2021/03/30 09:33:58;;;;;;;3.30;2.60;;;;;;;;;;5040914;28;20851;-75
2021/03/30 09:36:24;;;;;;;5.93;1.80;;;;;;;;;;5057775;28;21030;-74
2021/03/30 09:38:52;;;;;;;2.03;1.60;;;;;;;;;;5050380;28;20490;-75
2021/03/30 09:41:35;;;;;;;2.37;1.83;;;;;;;;;;5029348;28;20483;-74
2021/03/30 09:44:02;;;;;;;1.97;1.87;;;;;;;;;;5046201;28;20426;-74
2021/03/30 09:46:28;;;;;;;6.00;2.00;;;;;;;;;;5037670;28;20633;-75
2021/03/30 09:48:55;;;;;;;3.00;1.57;;;;;;;;;;5057347;28;20411;-74
2021/03/30 09:51:21;;;;;;;2.10;1.80;;;;;;;;;;5033291;28;20458;-75
2021/03/30 09:53:47;;;;;;;2.03;1.60;;;;;;;;;;5050993;28;20403;-74
2021/03/30 09:56:20;;;;;;;3.80;1.87;;;;;;;;;;5039152;28;20955;-74
2021/03/30 09:58:46;;;;;;;2.80;1.80;;;;;;;;;;5036575;28;20614;-74
2021/03/30 10:01:12;;;;;;;4.03;2.40;;;;;;;;;;5046565;28;20419;-77
2021/03/30 10:03:39;;;;;;;4.67;2.47;;;;;;;;;;5055973;28;20426;-77
2021/03/30 10:06:17;;;;;;;2.30;1.93;;;;;;;;;;5057144;28;20433;-75
2021/03/30 10:08:43;;;;;;;1.73;1.63;;;;;;;;;;5034365;28;20403;-75
2021/03/30 10:11:09;;;;;;;6.20;2.47;;;;;;;;;;5050053;28;20502;-75
2021/03/30 10:13:39;;;;;;;1.77;1.50;;;;;;;;;;5025884;28;20503;-75
2021/03/30 10:16:13;;;;;;;3.23;1.93;;;;;;;;;;5038213;28;20519;-76
2021/03/30 10:18:41;;;;;;;2.23;2.03;;;;;;;;;;5034113;28;20533;-76
2021/03/30 10:21:12;;;;;;;2.73;1.43;;;;;;;;;;5054935;28;20927;-76
2021/03/30 10:23:42;;;;;;;2.20;1.50;;;;;;;;;;5058135;28;20510;-76
2021/03/30 10:26:13;;;;;;;2.37;1.67;;;;;;;;;;5039788;28;20488;-75
2021/03/30 10:28:38;;;;;;;6.67;3.00;;;;;;;;;;5032304;28;20418;-76
2021/03/30 10:31:38;;;;;;;3.20;1.40;;;;;;;;;;5056492;28;20411;-75
2021/03/30 10:33:57;;;;;;;2.07;1.47;;;;;;;;;;5029990;28;20434;-74
2021/03/30 10:36:23;;;;;;;1.40;1.30;;;;;;;;;;5046461;28;20883;-73
2021/03/30 10:39:04;;;;;;;2.03;1.80;;;;;;;;;;5035931;28;20194;-73
2021/03/30 10:41:48;;;;;;;2.33;1.67;;;;;;;;;;5047996;28;20419;-75
2021/03/30 10:44:17;;;;;;;2.73;2.10;;;;;;;;;;5056689;28;20419;-75
2021/03/30 10:46:44;;;;;;;4.23;2.00;;;;;;;;;;5055328;28;20461;-75
2021/03/30 10:49:10;;;;;;;2.07;1.80;;;;;;;;;;5057263;28;20924;-75
2021/03/30 10:51:40;;;;;;;2.70;1.40;;;;;;;;;;5038025;28;20498;-75
2021/03/30 10:54:07;;;;;;;4.47;2.30;;;;;;;;;;5029100;28;20412;-75
2021/03/30 10:56:34;;;;;;;3.33;1.73;;;;;;;;;;5031659;28;20470;-76
2021/03/30 10:59:00;;;;;;;1.60;1.50;;;;;;;;;;5028446;28;20856;-77
2021/03/30 11:01:26;;;;;;;3.03;1.43;;;;;;;;;;5036573;28;20411;-75
2021/03/30 11:03:52;;;;;;;2.50;2.10;;;;;;;;;;5053963;28;20473;-75
2021/03/30 11:06:18;;;;;;;12.10;2.30;;;;;;;;;;5023366;28;20446;-76
2021/03/30 11:08:44;;;;;;;4.43;1.30;;;;;;;;;;5031632;28;20407;-76
2021/03/30 11:11:10;;;;;;;3.43;1.30;;;;;;;;;;5052378;28;20883;-75
2021/03/30 11:13:37;;;;;;;1.50;1.40;;;;;;;;;;5048525;28;20395;-75
2021/03/30 11:16:04;;;;;;;1.40;1.30;;;;;;;;;;5056735;28;20908;-77
2021/03/30 11:18:30;;;;;;;2.27;1.67;;;;;;;;;;5051493;28;20414;-76
2021/03/30 11:20:56;;;;;;;3.00;1.63;;;;;;;;;;5052802;28;21091;-74
2021/03/30 11:23:22;;;;;;;2.50;1.80;;;;;;;;;;5058215;28;20443;-74
2021/03/30 11:25:48;;;;;;;5.10;2.07;;;;;;;;;;5057463;28;20442;-76
2021/03/30 11:28:14;;;;;;;3.00;2.00;;;;;;;;;;5034130;28;20487;-74
2021/03/30 11:30:45;;;;;;;2.70;1.30;;;;;;;;;;5040278;28;20558;-76
2021/03/30 11:35:49;;;;;;;1.30;1.00;;;;;;;;;;5058659;28;20450;-73
2021/03/30 11:38:15;;;;;;;2.23;2.00;;;;;;;;;;5067900;28;20432;-75
2021/03/30 11:40:41;;;;;;;2.50;1.10;;;;;;;;;;5062764;28;20415;-74
2021/03/30 11:43:07;;;;;;;3.10;1.60;;;;;;;;;;5063967;28;20908;-75
2021/03/30 11:45:35;;;;;;;2.10;1.30;;;;;;;;;;5042128;28;20466;-75
2021/03/30 11:48:01;;;;;;;3.70;3.43;;;;;;;;;;5059038;28;20590;-75
2021/03/30 11:50:28;;;;;;;3.80;1.37;;;;;;;;;;5058957;28;20500;-75
2021/03/30 11:52:54;;;;;;;1.20;1.00;;;;;;;;;;5054848;28;20490;-75
2021/03/30 11:55:20;;;;;;;2.43;1.17;;;;;;;;;;5034059;28;20427;-77
2021/03/30 11:57:47;;;;;;;4.07;1.30;;;;;;;;;;5059905;28;21182;-74
2021/03/30 12:00:14;;;;;;;3.50;1.13;;;;;;;;;;5039440;28;20547;-74
2021/03/30 12:02:40;;;;;;;2.87;2.03;;;;;;;;;;5050681;28;20411;-77
2021/03/30 12:05:07;;;;;;;1.53;0.97;;;;;;;;;;5062541;28;20469;-79
2021/03/30 12:07:33;;;;;;;1.27;1.07;;;;;;;;;;5040684;28;20498;-74
2021/03/30 12:09:59;;;;;;;2.90;2.47;;;;;;;;;;5056946;28;21039;-74
2021/03/30 12:12:25;;;;;;;4.27;1.70;;;;;;;;;;5053572;28;20482;-74
2021/03/30 12:14:52;;;;;;;1.90;1.70;;;;;;;;;;5040826;28;20501;-73
2021/03/30 12:17:18;;;;;;;1.60;1.40;;;;;;;;;;5069480;28;20479;-76
2021/03/30 12:19:44;;;;;;;2.53;1.30;;;;;;;;;;5063167;28;20442;-75
2021/03/30 12:22:13;;;;;;;3.10;1.17;;;;;;;;;;5036552;28;20506;-75
2021/03/30 12:24:39;;;;;;;1.77;1.40;;;;;;;;;;5038423;28;20477;-75
2021/03/30 12:27:11;;;;;;;2.87;1.83;;;;;;;;;;5039929;28;20452;-73
2021/03/30 12:29:38;;;;;;;1.93;1.20;;;;;;;;;;5060017;28;20443;-75
2021/03/30 12:32:04;;;;;;;2.90;1.77;;;;;;;;;;5054250;28;20981;-75
2021/03/30 12:34:30;;;;;;;5.33;3.93;;;;;;;;;;5061057;28;20421;-75
2021/03/30 12:36:56;;;;;;;4.00;1.47;;;;;;;;;;5038245;28;20403;-76
2021/03/30 12:39:22;;;;;;;4.37;2.50;;;;;;;;;;5066897;28;20402;-76
2021/03/30 12:41:48;;;;;;;1.73;1.63;;;;;;;;;;5041456;28;20413;-76
2021/03/30 12:44:14;;;;;;;4.00;2.13;;;;;;;;;;5054909;28;20456;-77
2021/03/30 12:46:40;;;;;;;2.60;1.87;;;;;;;;;;5035811;28;20450;-76
2021/03/30 12:49:06;;;;;;;1.40;1.00;;;;;;;;;;5057715;28;20395;-75
2021/03/30 12:51:35;;;;;;;1.43;1.20;;;;;;;;;;5056422;28;20401;-76
2021/03/30 12:54:02;;;;;;;4.17;1.23;;;;;;;;;;5056510;28;20417;-76
2021/03/30 12:56:28;;;;;;;1.97;1.23;;;;;;;;;;5058720;28;20423;-76
2021/03/30 12:58:54;;;;;;;3.30;1.70;;;;;;;;;;5063179;28;20939;-77
2021/03/30 13:01:22;;;;;;;6.57;3.23;;;;;;;;;;5072528;28;20418;-77
2021/03/30 13:03:50;;;;;;;0.80;0.60;;;;;;;;;;5042906;28;20498;-76
2021/03/30 13:06:16;;;;;;;1.40;1.10;;;;;;;;;;5071325;28;20436;-77
2021/03/30 13:08:42;;;;;;;1.23;1.13;;;;;;;;;;5062126;28;20435;-76
2021/03/30 13:11:08;;;;;;;1.60;1.33;;;;;;;;;;5065970;28;20981;-76
2021/03/30 13:13:34;;;;;;;4.40;1.17;;;;;;;;;;5059680;28;20260;-76
2021/03/30 13:16:02;;;;;;;1.53;1.30;;;;;;;;;;5053037;28;20421;-76
2021/03/30 13:18:28;;;;;;;1.10;0.80;;;;;;;;;;5037748;28;20515;-76
2021/03/30 13:20:54;;;;;;;2.03;1.27;;;;;;;;;;5056293;28;20415;-77
2021/03/30 13:23:21;;;;;;;1.20;0.73;;;;;;;;;;5055276;28;20429;-76
2021/03/30 13:25:47;;;;;;;2.33;0.93;;;;;;;;;;5061511;28;20419;-76
2021/03/30 13:28:13;;;;;;;2.40;1.07;;;;;;;;;;5036291;28;20506;-76
2021/03/30 13:30:43;;;;;;;1.10;1.00;;;;;;;;;;5062456;28;20275;-75
2021/03/30 13:33:09;;;;;;;0.80;0.60;;;;;;;;;;5059021;28;20415;-76
2021/03/30 13:35:38;;;;;;;1.00;0.60;;;;;;;;;;5040102;28;20423;-75
2021/03/30 13:38:04;;;;;;;3.80;0.80;;;;;;;;;;5049714;28;20413;-77
2021/03/30 13:40:32;;;;;;;1.53;0.67;;;;;;;;;;5027830;28;20415;-76
2021/03/30 13:42:59;;;;;;;1.00;0.80;;;;;;;;;;5038287;28;21146;-77
2021/03/30 13:45:26;;;;;;;2.53;0.90;;;;;;;;;;5057259;28;20429;-76
2021/03/30 13:47:52;;;;;;;1.47;1.37;;;;;;;;;;5037685;28;20941;-77
2021/03/30 13:50:18;;;;;;;3.40;1.33;;;;;;;;;;5045983;28;20394;-77
2021/03/30 13:52:44;;;;;;;2.60;0.83;;;;;;;;;;5041990;28;20408;-76
2021/03/30 13:55:10;;;;;;;1.00;0.90;;;;;;;;;;5044952;28;20430;-76
2021/03/30 13:57:37;;;;;;;1.00;0.80;;;;;;;;;;5049014;28;20418;-76
2021/03/30 14:00:07;;;;;;;2.23;0.90;;;;;;;;;;5038268;28;20411;-76
2021/03/30 14:02:33;;;;;;;2.40;0.80;;;;;;;;;;5037399;28;20924;-76
2021/03/30 14:04:59;;;;;;;1.83;1.53;;;;;;;;;;5056476;28;20480;-76
2021/03/30 14:07:25;;;;;;;1.13;0.90;;;;;;;;;;5059312;28;20196;-76
2021/03/30 14:10:00;;;;;;;1.13;0.90;;;;;;;;;;5064047;28;20514;-76
2021/03/30 14:12:50;;;;;;;1.00;0.83;;;;;;;;;;5072436;28;20415;-76
2021/03/30 14:18:21;;;;;;;11.03;1.30;;;;;;;;;;5079649;28;20458;-77
2021/03/30 14:23:40;;;;;;;0.90;0.67;;;;;;;;;;5031298;28;20419;-75
2021/03/30 14:26:15;;;;;;;6.77;1.13;;;;;;;;;;5038879;28;20455;-75
2021/03/30 14:28:41;;;;;;;2.27;0.73;;;;;;;;;;5050684;28;20422;-76
2021/03/30 14:31:07;;;;;;;0.87;0.70;;;;;;;;;;5055023;28;20475;-73
2021/03/30 14:33:33;;;;;;;2.47;1.10;;;;;;;;;;5061689;28;20226;-78
2021/03/30 14:35:59;;;;;;;2.87;0.70;;;;;;;;;;5029623;28;20472;-77
2021/03/30 14:38:25;;;;;;;1.30;0.83;;;;;;;;;;5050370;28;20908;-77
2021/03/30 14:40:51;;;;;;;0.90;0.60;;;;;;;;;;5035510;28;20813;-76
2021/03/30 14:43:26;;;;;;;1.13;0.93;;;;;;;;;;5053604;28;20481;-76
2021/03/30 14:46:31;;;;;;;1.63;0.70;;;;;;;;;;5036877;28;20413;-76
2021/03/30 14:54:18;;;;;;;1.57;1.30;;;;;;;;;;5045131;28;20393;-76
2021/03/30 14:56:52;;;;;;;1.17;0.77;;;;;;;;;;5052869;28;20953;-76
2021/03/30 14:59:30;;;;;;;2.83;1.87;;;;;;;;;;5045302;28;20463;-76
2021/03/30 15:04:25;;;;;;;3.93;0.93;;;;;;;;;;5062568;28;20834;-75
2021/03/30 15:06:51;;;;;;;3.70;1.30;;;;;;;;;;5063377;28;20432;-76
2021/03/30 15:09:17;;;;;;;1.57;1.27;;;;;;;;;;5028165;28;21204;-75
2021/03/30 15:11:43;;;;;;;2.03;1.20;;;;;;;;;;5032359;28;20524;-75
2021/03/30 15:14:09;;;;;;;3.07;0.93;;;;;;;;;;5046992;28;20420;-74